sensor_id;sensor_type;location;lat;lon;timestamp;P1;durP1;ratioP1;P2;durP2;ratioP2
50291;SDS011;36190;54.980;73.388;2023-02-15T00:01:35;42.57;;;14.17;;
50291;SDS011;36190;54.980;73.388;2023-02-15T00:04:05;36.47;;;13.00;;
50291;SDS011;36190;54.980;73.388;2023-02-15T00:06:34;41.93;;;13.80;;
50291;SDS011;36190;54.980;73.388;2023-02-15T00:09:02;38.40;;;13.07;;
50291;SDS011;36190;54.980;73.388;2023-02-15T00:11:29;39.80;;;12.97;;
50291;SDS011;36190;54.980;73.388;2023-02-15T00:14:08;39.27;;;11.67;;
50291;SDS011;36190;54.980;73.388;2023-02-15T00:16:37;38.17;;;13.07;;
50291;SDS011;36190;54.980;73.388;2023-02-15T00:19:07;44.80;;;14.10;;
50291;SDS011;36190;54.980;73.388;2023-02-15T00:21:36;36.63;;;13.53;;
50291;SDS011;36190;54.980;73.388;2023-02-15T00:24:05;49.07;;;15.40;;
50291;SDS011;36190;54.980;73.388;2023-02-15T00:26:34;47.17;;;15.17;;
50291;SDS011;36190;54.980;73.388;2023-02-15T00:29:02;47.67;;;15.70;;
50291;SDS011;36190;54.980;73.388;2023-02-15T00:31:30;50.77;;;15.37;;
50291;SDS011;36190;54.980;73.388;2023-02-15T00:34:00;56.40;;;16.47;;
50291;SDS011;36190;54.980;73.388;2023-02-15T00:36:30;67.17;;;19.17;;
50291;SDS011;36190;54.980;73.388;2023-02-15T00:38:57;66.13;;;19.97;;
50291;SDS011;36190;54.980;73.388;2023-02-15T00:41:25;68.37;;;21.73;;
50291;SDS011;36190;54.980;73.388;2023-02-15T00:43:53;68.87;;;18.80;;
50291;SDS011;36190;54.980;73.388;2023-02-15T00:46:20;54.17;;;17.73;;
50291;SDS011;36190;54.980;73.388;2023-02-15T00:48:47;68.90;;;21.60;;
50291;SDS011;36190;54.980;73.388;2023-02-15T00:51:15;63.13;;;18.37;;
50291;SDS011;36190;54.980;73.388;2023-02-15T00:53:45;64.13;;;20.77;;
50291;SDS011;36190;54.980;73.388;2023-02-15T00:56:12;63.37;;;18.83;;
50291;SDS011;36190;54.980;73.388;2023-02-15T00:58:40;60.57;;;18.40;;
50291;SDS011;36190;54.980;73.388;2023-02-15T01:01:08;76.90;;;21.17;;
50291;SDS011;36190;54.980;73.388;2023-02-15T01:03:37;68.00;;;19.80;;
50291;SDS011;36190;54.980;73.388;2023-02-15T01:06:06;48.43;;;15.93;;
50291;SDS011;36190;54.980;73.388;2023-02-15T01:08:34;54.83;;;16.97;;
50291;SDS011;36190;54.980;73.388;2023-02-15T01:11:04;65.03;;;18.93;;
50291;SDS011;36190;54.980;73.388;2023-02-15T01:13:33;54.43;;;18.80;;
50291;SDS011;36190;54.980;73.388;2023-02-15T01:16:01;49.83;;;18.03;;
50291;SDS011;36190;54.980;73.388;2023-02-15T01:18:29;47.87;;;17.23;;
50291;SDS011;36190;54.980;73.388;2023-02-15T01:20:57;54.80;;;18.30;;
50291;SDS011;36190;54.980;73.388;2023-02-15T01:23:24;44.47;;;17.37;;
50291;SDS011;36190;54.980;73.388;2023-02-15T01:25:52;47.83;;;17.33;;
50291;SDS011;36190;54.980;73.388;2023-02-15T01:28:21;54.33;;;19.87;;
50291;SDS011;36190;54.980;73.388;2023-02-15T01:30:48;54.60;;;18.33;;
50291;SDS011;36190;54.980;73.388;2023-02-15T01:33:16;38.47;;;14.00;;
50291;SDS011;36190;54.980;73.388;2023-02-15T01:35:44;50.23;;;16.27;;
50291;SDS011;36190;54.980;73.388;2023-02-15T01:38:12;41.87;;;15.17;;
50291;SDS011;36190;54.980;73.388;2023-02-15T01:40:40;54.23;;;18.43;;
50291;SDS011;36190;54.980;73.388;2023-02-15T01:43:09;49.37;;;20.10;;
50291;SDS011;36190;54.980;73.388;2023-02-15T01:45:39;59.07;;;19.20;;
50291;SDS011;36190;54.980;73.388;2023-02-15T01:48:13;61.33;;;19.50;;
50291;SDS011;36190;54.980;73.388;2023-02-15T01:50:47;59.53;;;18.37;;
50291;SDS011;36190;54.980;73.388;2023-02-15T01:53:18;53.47;;;17.50;;
50291;SDS011;36190;54.980;73.388;2023-02-15T01:55:53;55.40;;;20.20;;
50291;SDS011;36190;54.980;73.388;2023-02-15T01:58:26;56.50;;;19.23;;
50291;SDS011;36190;54.980;73.388;2023-02-15T02:00:58;63.53;;;19.83;;
50291;SDS011;36190;54.980;73.388;2023-02-15T02:03:30;60.03;;;19.63;;
50291;SDS011;36190;54.980;73.388;2023-02-15T02:06:09;47.93;;;17.23;;
50291;SDS011;36190;54.980;73.388;2023-02-15T02:08:37;50.67;;;17.73;;
50291;SDS011;36190;54.980;73.388;2023-02-15T02:11:09;62.93;;;21.67;;
50291;SDS011;36190;54.980;73.388;2023-02-15T02:13:37;68.43;;;22.92;;
50291;SDS011;36190;54.980;73.388;2023-02-15T02:16:08;64.13;;;21.60;;
50291;SDS011;36190;54.980;73.388;2023-02-15T02:18:43;68.87;;;21.67;;
50291;SDS011;36190;54.980;73.388;2023-02-15T02:21:27;67.57;;;22.87;;
50291;SDS011;36190;54.980;73.388;2023-02-15T02:24:21;67.73;;;22.67;;
50291;SDS011;36190;54.980;73.388;2023-02-15T02:27:06;77.20;;;24.53;;
50291;SDS011;36190;54.980;73.388;2023-02-15T02:32:56;79.40;;;23.43;;
50291;SDS011;36190;54.980;73.388;2023-02-15T02:35:44;70.63;;;22.70;;
50291;SDS011;36190;54.980;73.388;2023-02-15T02:38:21;74.20;;;23.90;;
50291;SDS011;36190;54.980;73.388;2023-02-15T02:43:27;70.03;;;24.37;;
50291;SDS011;36190;54.980;73.388;2023-02-15T02:46:00;71.93;;;20.23;;
50291;SDS011;36190;54.980;73.388;2023-02-15T02:48:35;66.95;;;22.13;;
50291;SDS011;36190;54.980;73.388;2023-02-15T02:51:04;68.13;;;20.63;;
50291;SDS011;36190;54.980;73.388;2023-02-15T02:53:31;64.23;;;21.40;;
50291;SDS011;36190;54.980;73.388;2023-02-15T02:56:02;57.83;;;19.50;;
50291;SDS011;36190;54.980;73.388;2023-02-15T02:58:34;54.92;;;18.75;;
50291;SDS011;36190;54.980;73.388;2023-02-15T03:01:10;69.63;;;23.00;;
50291;SDS011;36190;54.980;73.388;2023-02-15T03:03:44;58.43;;;20.60;;
50291;SDS011;36190;54.980;73.388;2023-02-15T03:06:16;62.97;;;20.73;;
50291;SDS011;36190;54.980;73.388;2023-02-15T03:08:47;72.40;;;22.10;;
50291;SDS011;36190;54.980;73.388;2023-02-15T03:11:17;69.33;;;21.70;;
50291;SDS011;36190;54.980;73.388;2023-02-15T03:13:44;67.20;;;19.47;;
50291;SDS011;36190;54.980;73.388;2023-02-15T03:16:15;54.80;;;18.30;;
50291;SDS011;36190;54.980;73.388;2023-02-15T03:18:55;55.23;;;18.30;;
50291;SDS011;36190;54.980;73.388;2023-02-15T03:21:27;52.85;;;15.55;;
50291;SDS011;36190;54.980;73.388;2023-02-15T03:24:00;47.97;;;17.30;;
50291;SDS011;36190;54.980;73.388;2023-02-15T03:26:34;56.13;;;17.23;;
50291;SDS011;36190;54.980;73.388;2023-02-15T03:29:04;50.73;;;18.10;;
50291;SDS011;36190;54.980;73.388;2023-02-15T03:31:35;53.30;;;17.70;;
50291;SDS011;36190;54.980;73.388;2023-02-15T03:34:08;57.43;;;17.23;;
50291;SDS011;36190;54.980;73.388;2023-02-15T03:36:41;61.35;;;19.00;;
50291;SDS011;36190;54.980;73.388;2023-02-15T03:39:16;53.50;;;17.50;;
50291;SDS011;36190;54.980;73.388;2023-02-15T03:41:49;51.53;;;18.47;;
50291;SDS011;36190;54.980;73.388;2023-02-15T03:44:24;51.33;;;17.57;;
50291;SDS011;36190;54.980;73.388;2023-02-15T03:46:58;48.20;;;15.53;;
50291;SDS011;36190;54.980;73.388;2023-02-15T03:49:34;44.70;;;16.63;;
50291;SDS011;36190;54.980;73.388;2023-02-15T03:52:08;45.17;;;17.47;;
50291;SDS011;36190;54.980;73.388;2023-02-15T03:54:39;56.60;;;18.37;;
50291;SDS011;36190;54.980;73.388;2023-02-15T03:57:13;52.47;;;17.77;;
50291;SDS011;36190;54.980;73.388;2023-02-15T04:00:00;57.90;;;15.77;;
50291;SDS011;36190;54.980;73.388;2023-02-15T04:02:52;55.70;;;17.90;;
50291;SDS011;36190;54.980;73.388;2023-02-15T04:05:32;49.65;;;20.35;;
50291;SDS011;36190;54.980;73.388;2023-02-15T04:08:00;51.07;;;19.37;;
50291;SDS011;36190;54.980;73.388;2023-02-15T04:10:28;63.07;;;20.70;;
50291;SDS011;36190;54.980;73.388;2023-02-15T04:13:12;58.83;;;19.83;;
50291;SDS011;36190;54.980;73.388;2023-02-15T04:15:40;57.67;;;19.07;;
50291;SDS011;36190;54.980;73.388;2023-02-15T04:18:24;50.10;;;16.77;;
50291;SDS011;36190;54.980;73.388;2023-02-15T04:21:10;50.37;;;17.30;;
50291;SDS011;36190;54.980;73.388;2023-02-15T04:23:55;55.00;;;18.23;;
50291;SDS011;36190;54.980;73.388;2023-02-15T04:26:39;44.50;;;16.83;;
50291;SDS011;36190;54.980;73.388;2023-02-15T04:29:07;57.07;;;16.53;;
50291;SDS011;36190;54.980;73.388;2023-02-15T04:31:34;51.57;;;14.90;;
50291;SDS011;36190;54.980;73.388;2023-02-15T04:34:02;45.43;;;15.93;;
50291;SDS011;36190;54.980;73.388;2023-02-15T04:36:31;46.47;;;17.43;;
50291;SDS011;36190;54.980;73.388;2023-02-15T04:38:58;61.07;;;19.00;;
50291;SDS011;36190;54.980;73.388;2023-02-15T04:41:26;50.40;;;16.97;;
50291;SDS011;36190;54.980;73.388;2023-02-15T04:43:53;58.37;;;17.83;;
50291;SDS011;36190;54.980;73.388;2023-02-15T04:46:21;47.53;;;17.63;;
50291;SDS011;36190;54.980;73.388;2023-02-15T04:48:49;56.33;;;18.07;;
50291;SDS011;36190;54.980;73.388;2023-02-15T04:51:16;47.80;;;17.07;;
50291;SDS011;36190;54.980;73.388;2023-02-15T04:53:45;50.57;;;18.63;;
50291;SDS011;36190;54.980;73.388;2023-02-15T04:56:13;61.07;;;19.10;;
50291;SDS011;36190;54.980;73.388;2023-02-15T04:58:40;49.93;;;20.07;;
50291;SDS011;36190;54.980;73.388;2023-02-15T05:01:08;61.23;;;19.10;;
50291;SDS011;36190;54.980;73.388;2023-02-15T05:03:35;40.63;;;16.73;;
50291;SDS011;36190;54.980;73.388;2023-02-15T05:06:03;62.57;;;20.67;;
50291;SDS011;36190;54.980;73.388;2023-02-15T05:08:31;46.50;;;17.90;;
50291;SDS011;36190;54.980;73.388;2023-02-15T05:11:00;51.53;;;18.27;;
50291;SDS011;36190;54.980;73.388;2023-02-15T05:13:28;54.33;;;18.13;;
50291;SDS011;36190;54.980;73.388;2023-02-15T05:15:56;47.03;;;16.67;;
50291;SDS011;36190;54.980;73.388;2023-02-15T05:18:23;57.60;;;20.17;;
50291;SDS011;36190;54.980;73.388;2023-02-15T05:20:51;46.73;;;17.93;;
50291;SDS011;36190;54.980;73.388;2023-02-15T05:23:18;64.67;;;20.20;;
50291;SDS011;36190;54.980;73.388;2023-02-15T05:25:46;54.87;;;20.73;;
50291;SDS011;36190;54.980;73.388;2023-02-15T05:28:33;54.43;;;20.40;;
50291;SDS011;36190;54.980;73.388;2023-02-15T05:31:02;54.87;;;20.47;;
50291;SDS011;36190;54.980;73.388;2023-02-15T05:33:36;64.17;;;21.63;;
50291;SDS011;36190;54.980;73.388;2023-02-15T05:36:04;70.03;;;26.33;;
50291;SDS011;36190;54.980;73.388;2023-02-15T05:38:32;82.63;;;23.70;;
50291;SDS011;36190;54.980;73.388;2023-02-15T05:41:02;59.73;;;23.13;;
50291;SDS011;36190;54.980;73.388;2023-02-15T05:43:29;69.53;;;25.20;;
50291;SDS011;36190;54.980;73.388;2023-02-15T05:45:58;73.17;;;24.47;;
50291;SDS011;36190;54.980;73.388;2023-02-15T05:48:27;69.43;;;24.90;;
50291;SDS011;36190;54.980;73.388;2023-02-15T05:50:58;58.87;;;22.30;;
50291;SDS011;36190;54.980;73.388;2023-02-15T05:53:26;70.77;;;24.73;;
50291;SDS011;36190;54.980;73.388;2023-02-15T05:55:55;53.67;;;22.33;;
50291;SDS011;36190;54.980;73.388;2023-02-15T05:58:24;56.67;;;20.80;;
50291;SDS011;36190;54.980;73.388;2023-02-15T06:00:52;53.57;;;17.67;;
50291;SDS011;36190;54.980;73.388;2023-02-15T06:03:22;54.63;;;17.13;;
50291;SDS011;36190;54.980;73.388;2023-02-15T06:05:53;67.05;;;24.02;;
50291;SDS011;36190;54.980;73.388;2023-02-15T06:08:20;55.70;;;19.53;;
50291;SDS011;36190;54.980;73.388;2023-02-15T06:10:48;59.07;;;21.93;;
50291;SDS011;36190;54.980;73.388;2023-02-15T06:13:15;59.83;;;23.27;;
50291;SDS011;36190;54.980;73.388;2023-02-15T06:15:43;58.77;;;20.80;;
50291;SDS011;36190;54.980;73.388;2023-02-15T06:18:10;68.80;;;22.73;;
50291;SDS011;36190;54.980;73.388;2023-02-15T06:20:39;71.40;;;24.57;;
50291;SDS011;36190;54.980;73.388;2023-02-15T06:23:06;64.10;;;23.93;;
50291;SDS011;36190;54.980;73.388;2023-02-15T06:25:34;59.17;;;22.07;;
50291;SDS011;36190;54.980;73.388;2023-02-15T06:28:01;42.80;;;16.47;;
50291;SDS011;36190;54.980;73.388;2023-02-15T06:30:29;48.23;;;14.70;;
50291;SDS011;36190;54.980;73.388;2023-02-15T06:32:56;55.43;;;17.23;;
50291;SDS011;36190;54.980;73.388;2023-02-15T06:35:24;42.37;;;16.10;;
50291;SDS011;36190;54.980;73.388;2023-02-15T06:37:53;40.93;;;13.50;;
50291;SDS011;36190;54.980;73.388;2023-02-15T06:40:20;47.60;;;15.13;;
50291;SDS011;36190;54.980;73.388;2023-02-15T06:42:48;39.60;;;12.83;;
50291;SDS011;36190;54.980;73.388;2023-02-15T06:45:15;50.37;;;15.83;;
50291;SDS011;36190;54.980;73.388;2023-02-15T06:47:43;39.53;;;13.67;;
50291;SDS011;36190;54.980;73.388;2023-02-15T06:50:11;47.23;;;15.37;;
50291;SDS011;36190;54.980;73.388;2023-02-15T06:52:38;47.70;;;17.00;;
50291;SDS011;36190;54.980;73.388;2023-02-15T06:55:07;42.73;;;13.80;;
50291;SDS011;36190;54.980;73.388;2023-02-15T06:57:35;45.60;;;15.17;;
50291;SDS011;36190;54.980;73.388;2023-02-15T07:00:02;54.07;;;15.07;;
50291;SDS011;36190;54.980;73.388;2023-02-15T07:02:31;41.33;;;14.50;;
50291;SDS011;36190;54.980;73.388;2023-02-15T07:04:58;54.27;;;16.80;;
50291;SDS011;36190;54.980;73.388;2023-02-15T07:07:26;37.57;;;13.43;;
50291;SDS011;36190;54.980;73.388;2023-02-15T07:09:53;47.00;;;15.53;;
50291;SDS011;36190;54.980;73.388;2023-02-15T07:12:22;48.33;;;15.47;;
50291;SDS011;36190;54.980;73.388;2023-02-15T07:15:09;42.60;;;16.63;;
50291;SDS011;36190;54.980;73.388;2023-02-15T07:17:37;52.60;;;18.03;;
50291;SDS011;36190;54.980;73.388;2023-02-15T07:20:06;48.40;;;17.70;;
50291;SDS011;36190;54.980;73.388;2023-02-15T07:22:35;48.33;;;17.27;;
50291;SDS011;36190;54.980;73.388;2023-02-15T07:25:02;50.60;;;16.67;;
50291;SDS011;36190;54.980;73.388;2023-02-15T07:27:31;44.67;;;16.73;;
50291;SDS011;36190;54.980;73.388;2023-02-15T07:29:59;39.63;;;16.30;;
50291;SDS011;36190;54.980;73.388;2023-02-15T07:32:27;51.07;;;17.40;;
50291;SDS011;36190;54.980;73.388;2023-02-15T07:34:55;47.10;;;15.00;;
50291;SDS011;36190;54.980;73.388;2023-02-15T07:37:23;59.80;;;17.80;;
50291;SDS011;36190;54.980;73.388;2023-02-15T07:39:51;47.93;;;18.30;;
50291;SDS011;36190;54.980;73.388;2023-02-15T07:42:18;51.80;;;15.13;;
50291;SDS011;36190;54.980;73.388;2023-02-15T07:44:48;46.83;;;16.53;;
50291;SDS011;36190;54.980;73.388;2023-02-15T07:47:16;40.23;;;15.00;;
50291;SDS011;36190;54.980;73.388;2023-02-15T07:49:44;39.67;;;12.77;;
50291;SDS011;36190;54.980;73.388;2023-02-15T07:52:13;48.53;;;16.23;;
50291;SDS011;36190;54.980;73.388;2023-02-15T07:54:40;37.37;;;14.60;;
50291;SDS011;36190;54.980;73.388;2023-02-15T07:57:08;40.67;;;15.00;;
50291;SDS011;36190;54.980;73.388;2023-02-15T07:59:35;24.73;;;9.27;;
50291;SDS011;36190;54.980;73.388;2023-02-15T08:02:04;36.37;;;14.53;;
50291;SDS011;36190;54.980;73.388;2023-02-15T08:04:34;41.13;;;16.77;;
50291;SDS011;36190;54.980;73.388;2023-02-15T08:07:02;34.43;;;13.80;;
50291;SDS011;36190;54.980;73.388;2023-02-15T08:09:29;36.07;;;15.10;;
50291;SDS011;36190;54.980;73.388;2023-02-15T08:11:57;28.37;;;13.00;;
50291;SDS011;36190;54.980;73.388;2023-02-15T08:14:24;40.27;;;15.37;;
50291;SDS011;36190;54.980;73.388;2023-02-15T08:16:54;56.07;;;24.03;;
50291;SDS011;36190;54.980;73.388;2023-02-15T08:19:24;39.87;;;14.20;;
50291;SDS011;36190;54.980;73.388;2023-02-15T08:21:53;33.33;;;12.50;;
50291;SDS011;36190;54.980;73.388;2023-02-15T08:24:23;29.43;;;12.87;;
50291;SDS011;36190;54.980;73.388;2023-02-15T08:26:51;34.07;;;12.97;;
50291;SDS011;36190;54.980;73.388;2023-02-15T08:29:20;31.00;;;13.10;;
50291;SDS011;36190;54.980;73.388;2023-02-15T08:31:49;26.77;;;11.57;;
50291;SDS011;36190;54.980;73.388;2023-02-15T08:34:19;41.90;;;15.80;;
50291;SDS011;36190;54.980;73.388;2023-02-15T08:36:49;36.40;;;14.93;;
50291;SDS011;36190;54.980;73.388;2023-02-15T08:39:16;33.97;;;11.70;;
50291;SDS011;36190;54.980;73.388;2023-02-15T08:41:44;33.90;;;12.63;;
50291;SDS011;36190;54.980;73.388;2023-02-15T08:44:13;35.70;;;14.97;;
50291;SDS011;36190;54.980;73.388;2023-02-15T08:46:42;34.97;;;12.97;;
50291;SDS011;36190;54.980;73.388;2023-02-15T08:49:11;32.17;;;13.17;;
50291;SDS011;36190;54.980;73.388;2023-02-15T08:51:42;31.03;;;12.17;;
50291;SDS011;36190;54.980;73.388;2023-02-15T08:54:12;29.30;;;10.93;;
50291;SDS011;36190;54.980;73.388;2023-02-15T08:56:41;27.80;;;11.53;;
50291;SDS011;36190;54.980;73.388;2023-02-15T08:59:11;28.83;;;10.50;;
50291;SDS011;36190;54.980;73.388;2023-02-15T09:01:41;89.40;;;30.97;;
50291;SDS011;36190;54.980;73.388;2023-02-15T09:04:09;55.87;;;20.37;;
50291;SDS011;36190;54.980;73.388;2023-02-15T09:06:38;44.07;;;16.80;;
50291;SDS011;36190;54.980;73.388;2023-02-15T09:09:07;49.47;;;21.87;;
50291;SDS011;36190;54.980;73.388;2023-02-15T09:11:37;35.73;;;17.00;;
50291;SDS011;36190;54.980;73.388;2023-02-15T09:14:06;36.30;;;14.47;;
50291;SDS011;36190;54.980;73.388;2023-02-15T09:16:35;36.23;;;12.70;;
50291;SDS011;36190;54.980;73.388;2023-02-15T09:19:03;35.60;;;12.50;;
50291;SDS011;36190;54.980;73.388;2023-02-15T09:21:32;31.03;;;12.30;;
50291;SDS011;36190;54.980;73.388;2023-02-15T09:24:00;31.13;;;13.30;;
50291;SDS011;36190;54.980;73.388;2023-02-15T09:26:30;28.33;;;12.43;;
50291;SDS011;36190;54.980;73.388;2023-02-15T09:29:00;31.07;;;13.07;;
50291;SDS011;36190;54.980;73.388;2023-02-15T09:31:29;27.67;;;12.73;;
50291;SDS011;36190;54.980;73.388;2023-02-15T09:33:58;28.63;;;13.10;;
50291;SDS011;36190;54.980;73.388;2023-02-15T09:36:27;28.23;;;12.20;;
50291;SDS011;36190;54.980;73.388;2023-02-15T09:38:58;29.93;;;11.83;;
50291;SDS011;36190;54.980;73.388;2023-02-15T09:44:37;31.37;;;11.70;;
50291;SDS011;36190;54.980;73.388;2023-02-15T09:47:23;26.47;;;10.40;;
50291;SDS011;36190;54.980;73.388;2023-02-15T09:50:09;30.70;;;10.77;;
50291;SDS011;36190;54.980;73.388;2023-02-15T09:52:49;26.13;;;10.60;;
50291;SDS011;36190;54.980;73.388;2023-02-15T09:55:36;24.60;;;10.07;;
50291;SDS011;36190;54.980;73.388;2023-02-15T09:58:14;25.87;;;11.50;;
50291;SDS011;36190;54.980;73.388;2023-02-15T10:00:50;24.40;;;10.50;;
50291;SDS011;36190;54.980;73.388;2023-02-15T10:06:22;27.87;;;11.83;;
50291;SDS011;36190;54.980;73.388;2023-02-15T10:09:02;24.87;;;11.57;;
50291;SDS011;36190;54.980;73.388;2023-02-15T10:11:53;25.43;;;9.27;;
50291;SDS011;36190;54.980;73.388;2023-02-15T10:14:41;29.30;;;11.23;;
50291;SDS011;36190;54.980;73.388;2023-02-15T10:17:29;30.30;;;12.53;;
50291;SDS011;36190;54.980;73.388;2023-02-15T10:20:10;29.17;;;11.53;;
50291;SDS011;36190;54.980;73.388;2023-02-15T10:22:50;26.07;;;9.87;;
50291;SDS011;36190;54.980;73.388;2023-02-15T10:25:36;27.50;;;10.67;;
50291;SDS011;36190;54.980;73.388;2023-02-15T10:28:10;32.40;;;12.00;;
50291;SDS011;36190;54.980;73.388;2023-02-15T10:30:46;26.93;;;11.23;;
50291;SDS011;36190;54.980;73.388;2023-02-15T10:33:27;24.00;;;10.43;;
50291;SDS011;36190;54.980;73.388;2023-02-15T10:36:07;31.73;;;12.60;;
50291;SDS011;36190;54.980;73.388;2023-02-15T10:38:50;32.37;;;13.10;;
50291;SDS011;36190;54.980;73.388;2023-02-15T10:41:28;32.47;;;13.47;;
50291;SDS011;36190;54.980;73.388;2023-02-15T10:44:08;39.17;;;16.37;;
50291;SDS011;36190;54.980;73.388;2023-02-15T10:46:52;48.47;;;18.13;;
50291;SDS011;36190;54.980;73.388;2023-02-15T10:49:41;42.27;;;17.83;;
50291;SDS011;36190;54.980;73.388;2023-02-15T10:54:57;41.40;;;17.73;;
50291;SDS011;36190;54.980;73.388;2023-02-15T10:57:36;43.70;;;15.43;;
50291;SDS011;36190;54.980;73.388;2023-02-15T11:00:11;39.80;;;17.00;;
50291;SDS011;36190;54.980;73.388;2023-02-15T11:02:49;39.20;;;15.77;;
50291;SDS011;36190;54.980;73.388;2023-02-15T11:05:38;37.60;;;14.57;;
50291;SDS011;36190;54.980;73.388;2023-02-15T11:08:14;47.47;;;17.83;;
50291;SDS011;36190;54.980;73.388;2023-02-15T11:10:44;41.97;;;17.07;;
50291;SDS011;36190;54.980;73.388;2023-02-15T11:13:16;40.58;;;17.45;;
50291;SDS011;36190;54.980;73.388;2023-02-15T11:15:47;42.67;;;17.97;;
50291;SDS011;36190;54.980;73.388;2023-02-15T11:18:21;39.83;;;16.10;;
50291;SDS011;36190;54.980;73.388;2023-02-15T11:20:54;40.33;;;16.08;;
50291;SDS011;36190;54.980;73.388;2023-02-15T11:23:25;45.47;;;17.15;;
50291;SDS011;36190;54.980;73.388;2023-02-15T11:25:55;43.40;;;15.87;;
50291;SDS011;36190;54.980;73.388;2023-02-15T11:28:25;39.00;;;15.53;;
50291;SDS011;36190;54.980;73.388;2023-02-15T11:30:58;39.27;;;15.93;;
50291;SDS011;36190;54.980;73.388;2023-02-15T11:33:37;36.63;;;14.53;;
50291;SDS011;36190;54.980;73.388;2023-02-15T11:36:13;40.88;;;16.30;;
50291;SDS011;36190;54.980;73.388;2023-02-15T11:38:45;35.03;;;13.63;;
50291;SDS011;36190;54.980;73.388;2023-02-15T11:41:17;34.60;;;14.93;;
50291;SDS011;36190;54.980;73.388;2023-02-15T11:43:50;39.58;;;15.23;;
50291;SDS011;36190;54.980;73.388;2023-02-15T11:46:23;32.17;;;13.23;;
50291;SDS011;36190;54.980;73.388;2023-02-15T11:48:51;35.67;;;12.50;;
50291;SDS011;36190;54.980;73.388;2023-02-15T11:51:21;45.93;;;19.37;;
50291;SDS011;36190;54.980;73.388;2023-02-15T11:53:49;40.67;;;14.83;;
50291;SDS011;36190;54.980;73.388;2023-02-15T11:56:18;38.70;;;15.70;;
50291;SDS011;36190;54.980;73.388;2023-02-15T11:58:47;44.33;;;15.63;;
50291;SDS011;36190;54.980;73.388;2023-02-15T12:01:20;43.83;;;15.27;;
50291;SDS011;36190;54.980;73.388;2023-02-15T12:03:51;40.43;;;16.50;;
50291;SDS011;36190;54.980;73.388;2023-02-15T12:06:24;40.00;;;15.63;;
50291;SDS011;36190;54.980;73.388;2023-02-15T12:08:55;41.47;;;17.60;;
50291;SDS011;36190;54.980;73.388;2023-02-15T12:11:30;40.72;;;16.27;;
50291;SDS011;36190;54.980;73.388;2023-02-15T12:16:32;37.40;;;14.00;;
50291;SDS011;36190;54.980;73.388;2023-02-15T12:19:10;34.50;;;13.80;;
50291;SDS011;36190;54.980;73.388;2023-02-15T12:21:51;31.27;;;12.37;;
50291;SDS011;36190;54.980;73.388;2023-02-15T12:24:20;33.47;;;12.83;;
50291;SDS011;36190;54.980;73.388;2023-02-15T12:26:58;31.47;;;13.63;;
50291;SDS011;36190;54.980;73.388;2023-02-15T12:29:29;29.80;;;12.13;;
50291;SDS011;36190;54.980;73.388;2023-02-15T12:32:01;36.03;;;13.40;;
50291;SDS011;36190;54.980;73.388;2023-02-15T12:34:30;34.60;;;11.70;;
50291;SDS011;36190;54.980;73.388;2023-02-15T12:37:10;37.33;;;13.80;;
50291;SDS011;36190;54.980;73.388;2023-02-15T12:39:53;36.23;;;13.43;;
50291;SDS011;36190;54.980;73.388;2023-02-15T12:42:22;37.50;;;13.57;;
50291;SDS011;36190;54.980;73.388;2023-02-15T12:44:55;38.47;;;12.70;;
50291;SDS011;36190;54.980;73.388;2023-02-15T12:47:25;41.22;;;14.63;;
50291;SDS011;36190;54.980;73.388;2023-02-15T12:50:10;38.33;;;13.90;;
50291;SDS011;36190;54.980;73.388;2023-02-15T12:52:45;34.60;;;11.47;;
50291;SDS011;36190;54.980;73.388;2023-02-15T12:55:18;43.40;;;17.87;;
50291;SDS011;36190;54.980;73.388;2023-02-15T12:58:04;44.37;;;17.03;;
50291;SDS011;36190;54.980;73.388;2023-02-15T13:00:33;38.87;;;16.07;;
50291;SDS011;36190;54.980;73.388;2023-02-15T13:03:00;43.20;;;16.73;;
50291;SDS011;36190;54.980;73.388;2023-02-15T13:05:30;46.40;;;17.40;;
50291;SDS011;36190;54.980;73.388;2023-02-15T13:08:08;42.33;;;16.05;;
50291;SDS011;36190;54.980;73.388;2023-02-15T13:10:39;44.60;;;17.47;;
50291;SDS011;36190;54.980;73.388;2023-02-15T13:13:09;42.87;;;15.13;;
50291;SDS011;36190;54.980;73.388;2023-02-15T13:15:39;43.37;;;15.73;;
50291;SDS011;36190;54.980;73.388;2023-02-15T13:18:10;43.13;;;16.43;;
50291;SDS011;36190;54.980;73.388;2023-02-15T13:20:43;48.70;;;17.60;;
50291;SDS011;36190;54.980;73.388;2023-02-15T13:23:18;43.13;;;16.53;;
50291;SDS011;36190;54.980;73.388;2023-02-15T13:25:52;56.73;;;19.70;;
50291;SDS011;36190;54.980;73.388;2023-02-15T13:28:23;54.07;;;21.97;;
50291;SDS011;36190;54.980;73.388;2023-02-15T13:30:59;43.53;;;16.77;;
50291;SDS011;36190;54.980;73.388;2023-02-15T13:33:28;46.33;;;16.63;;
50291;SDS011;36190;54.980;73.388;2023-02-15T13:36:02;39.47;;;17.40;;
50291;SDS011;36190;54.980;73.388;2023-02-15T13:38:41;40.07;;;16.80;;
50291;SDS011;36190;54.980;73.388;2023-02-15T13:41:20;44.47;;;18.00;;
50291;SDS011;36190;54.980;73.388;2023-02-15T13:43:55;37.63;;;15.83;;
50291;SDS011;36190;54.980;73.388;2023-02-15T13:46:37;44.57;;;16.80;;
50291;SDS011;36190;54.980;73.388;2023-02-15T13:49:18;41.93;;;17.33;;
50291;SDS011;36190;54.980;73.388;2023-02-15T13:52:07;48.97;;;20.13;;
50291;SDS011;36190;54.980;73.388;2023-02-15T13:54:51;52.17;;;18.33;;
50291;SDS011;36190;54.980;73.388;2023-02-15T13:57:41;45.03;;;16.00;;
50291;SDS011;36190;54.980;73.388;2023-02-15T14:00:30;36.63;;;14.30;;
50291;SDS011;36190;54.980;73.388;2023-02-15T14:03:11;38.33;;;14.93;;
50291;SDS011;36190;54.980;73.388;2023-02-15T14:06:00;43.70;;;18.87;;
50291;SDS011;36190;54.980;73.388;2023-02-15T14:08:43;47.90;;;18.70;;
50291;SDS011;36190;54.980;73.388;2023-02-15T14:11:22;47.43;;;16.33;;
50291;SDS011;36190;54.980;73.388;2023-02-15T14:14:05;50.13;;;17.97;;
50291;SDS011;36190;54.980;73.388;2023-02-15T14:16:51;44.23;;;16.93;;
50291;SDS011;36190;54.980;73.388;2023-02-15T14:19:25;36.87;;;16.80;;
50291;SDS011;36190;54.980;73.388;2023-02-15T14:21:59;38.80;;;15.93;;
50291;SDS011;36190;54.980;73.388;2023-02-15T14:24:34;40.07;;;17.23;;
50291;SDS011;36190;54.980;73.388;2023-02-15T14:27:12;44.53;;;18.93;;
50291;SDS011;36190;54.980;73.388;2023-02-15T14:29:50;44.77;;;17.13;;
50291;SDS011;36190;54.980;73.388;2023-02-15T14:32:23;45.60;;;17.50;;
50291;SDS011;36190;54.980;73.388;2023-02-15T14:34:56;54.57;;;20.77;;
50291;SDS011;36190;54.980;73.388;2023-02-15T14:37:29;51.00;;;17.97;;
50291;SDS011;36190;54.980;73.388;2023-02-15T14:40:06;61.20;;;21.63;;
50291;SDS011;36190;54.980;73.388;2023-02-15T14:43:04;62.13;;;23.37;;
50291;SDS011;36190;54.980;73.388;2023-02-15T14:45:39;49.27;;;19.13;;
50291;SDS011;36190;54.980;73.388;2023-02-15T14:48:14;47.73;;;17.97;;
50291;SDS011;36190;54.980;73.388;2023-02-15T14:53:15;44.70;;;16.43;;
50291;SDS011;36190;54.980;73.388;2023-02-15T14:55:43;49.70;;;18.77;;
50291;SDS011;36190;54.980;73.388;2023-02-15T14:58:12;51.47;;;17.80;;